createdAt,value
2017-05-11T00:07:46.864Z,0
2017-05-11T00:17:57.784Z,0
2017-05-11T00:28:08.690Z,0
2017-05-11T00:38:19.702Z,0
2017-05-11T00:48:30.543Z,0
2017-05-11T00:58:41.494Z,0
2017-05-11T01:08:52.497Z,0
2017-05-11T01:19:03.523Z,0
2017-05-11T01:29:14.666Z,0
2017-05-11T01:39:25.835Z,0
2017-05-11T01:49:36.996Z,0
2017-05-11T01:59:48.140Z,0
2017-05-11T02:09:59.348Z,0
2017-05-11T02:20:10.523Z,0
2017-05-11T02:30:21.676Z,0
2017-05-11T02:40:32.947Z,0
2017-05-11T02:50:44.191Z,0
2017-05-11T03:00:55.375Z,0
2017-05-11T03:11:06.548Z,0
2017-05-11T03:21:17.745Z,0
2017-05-11T03:31:29.024Z,5
2017-05-11T03:41:40.394Z,10
2017-05-11T03:51:51.624Z,25
2017-05-11T04:02:02.960Z,55
2017-05-11T04:12:14.268Z,85
2017-05-11T04:22:25.367Z,120
2017-05-11T04:32:36.338Z,155
2017-05-11T04:42:47.112Z,180
2017-05-11T04:52:57.751Z,205
2017-05-11T05:03:08.270Z,225
2017-05-11T05:13:18.612Z,250
2017-05-11T05:23:28.825Z,275
2017-05-11T05:33:38.874Z,345
2017-05-11T05:43:48.836Z,475
2017-05-11T05:53:58.689Z,570
2017-05-11T06:04:08.450Z,730
2017-05-11T06:14:18.079Z,825
2017-05-11T06:24:27.649Z,965
2017-05-11T06:34:37.163Z,1105
2017-05-11T06:44:46.571Z,1295
2017-05-11T06:54:55.826Z,1375
2017-05-11T07:05:04.954Z,1495
2017-05-11T07:15:13.982Z,1535
2017-05-11T07:25:22.905Z,1790
2017-05-11T07:35:31.793Z,1660
2017-05-11T07:45:40.655Z,1410
2017-05-11T07:55:49.490Z,2070
2017-05-11T08:05:58.202Z,2215
2017-05-11T08:16:06.738Z,2335
2017-05-11T08:26:15.177Z,2505
2017-05-11T08:36:23.533Z,2625
2017-05-11T08:46:31.807Z,2550
2017-05-11T08:56:39.998Z,2865
2017-05-11T09:06:48.005Z,2940
2017-05-11T09:16:55.994Z,3080
2017-05-11T09:27:03.923Z,3015
2017-05-11T09:37:11.748Z,3205
2017-05-11T09:47:19.589Z,3315
2017-05-11T09:57:27.428Z,3415
2017-05-11T10:07:35.165Z,3505
2017-05-11T10:17:42.841Z,2810
2017-05-11T10:27:50.539Z,3630
2017-05-11T10:37:58.183Z,3155
2017-05-11T10:48:05.830Z,3725
2017-05-11T10:58:13.507Z,3390
2017-05-11T11:08:21.325Z,3615
2017-05-11T11:18:28.904Z,3080
2017-05-11T11:28:36.564Z,3775
2017-05-11T11:38:44.149Z,3590
2017-05-11T11:48:51.664Z,3055
2017-05-11T11:58:59.236Z,3035
2017-05-11T12:09:06.673Z,2195
2017-05-11T12:19:14.105Z,2175
2017-05-11T12:29:21.409Z,1095
2017-05-11T12:39:28.795Z,2455
2017-05-11T12:49:36.313Z,1050
2017-05-11T12:59:43.955Z,960
2017-05-11T13:09:51.589Z,1555
2017-05-11T13:19:59.126Z,745
2017-05-11T13:30:06.775Z,885
2017-05-11T13:40:14.485Z,1285
2017-05-11T13:50:22.160Z,1195
2017-05-11T14:00:29.793Z,1005
2017-05-11T14:10:37.444Z,840
2017-05-11T14:20:45.166Z,920
2017-05-11T14:30:52.954Z,595
2017-05-11T14:41:00.838Z,970
2017-05-11T14:51:08.712Z,1250
2017-05-11T15:01:16.348Z,765
2017-05-11T15:11:24.006Z,610
2017-05-11T15:21:31.926Z,525
2017-05-11T15:31:39.967Z,495
2017-05-11T15:41:48.087Z,465
2017-05-11T15:51:56.234Z,630
2017-05-11T16:02:04.428Z,615
2017-05-11T16:12:12.615Z,590
2017-05-11T16:22:20.835Z,575
2017-05-11T16:32:29.047Z,550
2017-05-11T16:42:37.194Z,450
2017-05-11T16:52:45.386Z,565
2017-05-11T17:02:53.457Z,535
2017-05-11T17:13:01.426Z,485
2017-05-11T17:23:09.371Z,270
2017-05-11T17:33:17.634Z,270
2017-05-11T17:43:26.034Z,240
2017-05-11T17:53:34.459Z,160
2017-05-11T18:03:43.002Z,115
2017-05-11T18:13:51.609Z,80
2017-05-11T18:24:00.301Z,75
2017-05-11T18:34:09.022Z,45
2017-05-11T18:44:17.910Z,15
2017-05-11T18:54:26.951Z,5
2017-05-11T19:04:36.116Z,5
2017-05-11T19:10:29.814Z,0
2017-05-11T19:10:56.973Z,0
2017-05-11T19:12:46.357Z,0
2017-05-11T19:13:40.824Z,0
2017-05-11T19:20:01.539Z,0
2017-05-11T19:21:47.043Z,0
2017-05-11T19:22:02.878Z,0
2017-05-11T19:22:18.298Z,0
2017-05-11T19:22:49.618Z,0
2017-05-11T19:23:07.603Z,0
2017-05-11T19:23:22.195Z,0
2017-05-11T19:23:38.374Z,0
2017-05-11T19:24:43.490Z,0
2017-05-11T19:34:52.554Z,0
2017-05-11T19:45:01.662Z,0
2017-05-11T19:55:10.830Z,0
2017-05-11T20:05:19.980Z,0
2017-05-11T20:15:29.121Z,0
2017-05-11T20:25:38.306Z,0
2017-05-11T20:35:47.431Z,0
2017-05-11T20:45:56.572Z,0
2017-05-11T20:56:05.720Z,0
2017-05-11T21:06:14.953Z,0
2017-05-11T21:16:24.119Z,0
2017-05-11T21:26:33.333Z,0
2017-05-11T21:36:42.550Z,0
2017-05-11T21:46:51.779Z,0
2017-05-11T21:57:01.049Z,0
2017-05-11T22:07:10.331Z,0
2017-05-11T22:17:19.668Z,0
2017-05-11T22:27:29.058Z,0
2017-05-11T22:37:38.511Z,0
2017-05-11T22:47:47.974Z,0
2017-05-11T22:57:57.448Z,0
2017-05-11T23:08:06.902Z,0
2017-05-11T23:18:16.451Z,0
2017-05-11T23:28:26.036Z,0
2017-05-11T23:38:35.611Z,0
2017-05-11T23:48:45.195Z,0
2017-05-11T23:58:54.728Z,0
